createdAt,value
2019-02-26T00:02:46.679Z,7.05
2019-02-26T00:05:52.211Z,6.99
2019-02-26T00:08:58.641Z,7.46
2019-02-26T00:12:00.873Z,7.50
2019-02-26T00:15:05.575Z,7.18
2019-02-26T00:18:11.551Z,7.39
2019-02-26T00:21:14.325Z,7.45
2019-02-26T00:24:17.591Z,7.54
2019-02-26T00:27:20.527Z,7.75
2019-02-26T00:30:24.176Z,7.43
2019-02-26T00:33:28.989Z,7.33
2019-02-26T00:36:33.641Z,7.30
2019-02-26T00:39:37.344Z,7.23
2019-02-26T00:42:42.199Z,7.03
2019-02-26T00:45:46.149Z,7.25
2019-02-26T00:48:49.330Z,7.35
2019-02-26T00:51:52.861Z,7.26
2019-02-26T00:54:58.174Z,6.97
2019-02-26T00:58:03.286Z,6.53
2019-02-26T01:01:10.203Z,6.37
2019-02-26T01:04:12.167Z,6.43
2019-02-26T01:07:15.808Z,6.33
2019-02-26T01:10:21.056Z,6.60
2019-02-26T01:13:25.649Z,7.08
2019-02-26T01:16:29.804Z,7.30
2019-02-26T01:19:34.180Z,6.89
2019-02-26T01:22:40.159Z,6.47
2019-02-26T01:25:43.051Z,6.78
2019-02-26T01:28:48.455Z,6.69
2019-02-26T01:31:51.366Z,6.78
2019-02-26T01:34:54.322Z,6.49
2019-02-26T01:37:59.882Z,6.43
2019-02-26T01:41:02.351Z,6.37
2019-02-26T01:44:05.302Z,6.94
2019-02-26T01:47:08.294Z,7.20
2019-02-26T01:50:13.389Z,7.16
2019-02-26T01:53:17.558Z,6.50
2019-02-26T01:56:22.169Z,6.41
2019-02-26T01:59:25.409Z,6.38
2019-02-26T02:02:30.281Z,6.36
2019-02-26T02:05:33.336Z,6.60
2019-02-26T02:08:39.290Z,6.92
2019-02-26T02:11:41.681Z,7.01
2019-02-26T02:14:45.196Z,7.08
2019-02-26T02:17:48.740Z,7.09
2019-02-26T02:20:51.679Z,7.10
2019-02-26T02:23:54.638Z,6.71
2019-02-26T02:26:58.480Z,6.38
2019-02-26T02:30:03.509Z,6.36
2019-02-26T02:33:07.086Z,6.83
2019-02-26T02:36:11.789Z,7.03
2019-02-26T02:39:17.762Z,7.23
2019-02-26T02:42:22.015Z,6.98
2019-02-26T02:45:25.191Z,6.98
2019-02-26T02:48:28.397Z,7.01
2019-02-26T02:51:33.971Z,7.06
2019-02-26T02:54:38.555Z,6.44
2019-02-26T02:57:42.728Z,6.40
2019-02-26T03:00:46.556Z,6.88
2019-02-26T03:03:53.819Z,6.70
2019-02-26T03:06:58.643Z,6.35
2019-02-26T03:10:06.250Z,6.50
2019-02-26T03:13:08.957Z,6.80
2019-02-26T03:16:13.546Z,6.86
2019-02-26T03:19:19.026Z,6.96
2019-02-26T03:22:22.486Z,6.72
2019-02-26T03:25:27.023Z,6.18
2019-02-26T03:28:34.842Z,6.18
2019-02-26T03:31:41.049Z,6.67
2019-02-26T03:34:40.832Z,6.76
2019-02-26T03:37:44.134Z,6.69
2019-02-26T03:40:49.326Z,6.69
2019-02-26T03:43:54.441Z,6.47
2019-02-26T03:46:57.739Z,6.52
2019-02-26T03:50:01.268Z,6.70
2019-02-26T03:53:04.309Z,6.80
2019-02-26T03:56:08.912Z,6.56
2019-02-26T03:59:12.875Z,6.47
2019-02-26T04:02:18.120Z,6.46
2019-02-26T04:05:21.519Z,6.41
2019-02-26T04:08:26.920Z,6.37
2019-02-26T04:11:30.018Z,6.54
2019-02-26T04:14:33.235Z,6.55
2019-02-26T04:17:37.002Z,6.62
2019-02-26T04:20:44.357Z,6.55
2019-02-26T04:23:47.340Z,6.38
2019-02-26T04:27:57.009Z,6.42
2019-02-26T04:31:54.673Z,5.93
2019-02-26T04:35:32.164Z,5.45
2019-02-26T04:39:26.340Z,5.38
2019-02-26T04:43:54.185Z,5.13
2019-02-26T04:47:15.202Z,5.16
2019-02-26T04:50:18.149Z,5.23
2019-02-26T04:53:23.258Z,5.34
2019-02-26T04:56:31.246Z,5.48
2019-02-26T04:59:34.866Z,5.55
2019-02-26T05:02:37.888Z,5.81
2019-02-26T05:05:41.123Z,6.08
2019-02-26T05:08:44.967Z,5.92
2019-02-26T05:11:47.909Z,5.52
2019-02-26T05:14:51.406Z,5.35
2019-02-26T05:17:54.608Z,5.50
2019-02-26T05:20:59.328Z,6.00
2019-02-26T05:24:03.446Z,5.82
2019-02-26T05:27:18.673Z,5.30
2019-02-26T05:30:22.395Z,5.60
2019-02-26T05:33:27.691Z,5.93
2019-02-26T05:36:33.194Z,6.01
2019-02-26T05:39:35.431Z,6.18
2019-02-26T05:42:38.668Z,5.99
2019-02-26T05:45:42.275Z,5.82
2019-02-26T05:48:48.392Z,5.64
2019-02-26T05:51:53.537Z,5.78
2019-02-26T05:54:56.724Z,5.09
2019-02-26T05:57:59.654Z,4.99
2019-02-26T06:01:03.172Z,4.95
2019-02-26T06:04:07.665Z,5.06
2019-02-26T06:07:10.990Z,4.99
2019-02-26T06:10:14.235Z,4.99
2019-02-26T06:13:17.747Z,4.95
2019-02-26T06:16:21.845Z,4.73
2019-02-26T06:19:45.019Z,4.82
2019-02-26T06:22:48.144Z,5.04
2019-02-26T06:25:55.231Z,5.68
2019-02-26T06:28:56.216Z,5.40
2019-02-26T06:32:11.885Z,5.63
2019-02-26T06:35:16.416Z,5.37
2019-02-26T06:38:20.525Z,5.55
2019-02-26T06:41:23.458Z,5.78
2019-02-26T06:44:26.701Z,5.81
2019-02-26T06:47:31.089Z,5.89
2019-02-26T06:50:36.810Z,5.82
2019-02-26T06:53:45.058Z,5.86
2019-02-26T06:56:49.048Z,5.08
2019-02-26T06:59:55.723Z,5.08
2019-02-26T07:03:00.123Z,5.24
2019-02-26T07:06:04.915Z,5.28
2019-02-26T07:09:10.962Z,5.48
2019-02-26T07:12:14.622Z,5.52
2019-02-26T07:15:18.990Z,5.96
2019-02-26T07:18:22.361Z,6.13
2019-02-26T07:21:25.581Z,6.21
2019-02-26T07:24:29.362Z,6.19
2019-02-26T07:27:34.211Z,6.12
2019-02-26T07:30:39.435Z,6.22
2019-02-26T07:33:42.062Z,6.14
2019-02-26T07:36:46.194Z,6.17
2019-02-26T07:39:51.585Z,6.15
2019-02-26T07:42:54.629Z,6.42
2019-02-26T07:45:57.573Z,6.14
2019-02-26T07:49:02.635Z,6.10
2019-02-26T07:52:08.178Z,6.11
2019-02-26T07:55:12.027Z,6.23
2019-02-26T07:58:17.731Z,6.29
2019-02-26T08:01:20.643Z,6.32
2019-02-26T08:04:23.914Z,6.28
2019-02-26T08:07:28.467Z,6.45
2019-02-26T08:10:35.168Z,6.32
2019-02-26T08:13:37.159Z,6.52
2019-02-26T08:16:40.356Z,6.39
2019-02-26T08:19:46.361Z,6.47
2019-02-26T08:22:49.517Z,6.67
2019-02-26T08:25:55.474Z,6.60
2019-02-26T08:29:00.058Z,6.56
2019-02-26T08:32:04.221Z,6.67
2019-02-26T08:35:07.784Z,6.58
2019-02-26T08:38:11.022Z,6.70
2019-02-26T08:41:14.308Z,6.73
2019-02-26T08:44:17.292Z,6.79
2019-02-26T08:47:21.148Z,6.80
2019-02-26T08:50:28.565Z,6.77
2019-02-26T08:53:31.607Z,7.01
2019-02-26T08:56:36.393Z,7.16
2019-02-26T08:59:39.769Z,7.50
2019-02-26T09:02:43.726Z,7.73
2019-02-26T09:05:49.350Z,7.82
2019-02-26T09:08:55.159Z,7.99
2019-02-26T09:12:01.183Z,8.18
2019-02-26T09:15:06.230Z,8.37
2019-02-26T09:18:09.287Z,8.56
2019-02-26T09:21:13.499Z,8.74
2019-02-26T09:24:17.654Z,8.85
2019-02-26T09:27:20.884Z,8.98
2019-02-26T09:30:24.480Z,9.09
2019-02-26T09:33:32.525Z,9.26
2019-02-26T09:36:32.580Z,9.40
2019-02-26T09:39:36.596Z,9.62
2019-02-26T09:42:40.904Z,9.76
2019-02-26T09:45:45.911Z,9.86
2019-02-26T09:48:49.317Z,9.97
2019-02-26T09:51:55.070Z,10.18
2019-02-26T09:54:58.108Z,10.39
2019-02-26T09:58:02.595Z,10.52
2019-02-26T10:01:06.893Z,10.80
2019-02-26T10:04:11.239Z,10.76
2019-02-26T10:07:14.472Z,10.76
2019-02-26T10:10:18.768Z,10.88
2019-02-26T10:13:24.734Z,10.96
2019-02-26T10:16:28.708Z,11.09
2019-02-26T10:19:33.750Z,11.19
2019-02-26T10:22:40.349Z,11.41
2019-02-26T10:25:43.085Z,11.46
2019-02-26T10:28:51.059Z,11.47
2019-02-26T10:31:50.941Z,11.53
2019-02-26T10:34:53.916Z,11.69
2019-02-26T10:37:59.444Z,11.85
2019-02-26T10:41:02.530Z,11.86
2019-02-26T10:44:05.479Z,12.10
2019-02-26T10:47:10.546Z,12.32
2019-02-26T10:50:18.482Z,12.26
2019-02-26T10:53:22.698Z,12.55
2019-02-26T10:56:28.172Z,12.83
2019-02-26T10:59:31.132Z,12.94
2019-02-26T11:02:34.381Z,13.10
2019-02-26T11:05:39.835Z,13.27
2019-02-26T11:08:42.793Z,13.43
2019-02-26T11:11:45.744Z,13.49
2019-02-26T11:14:49.027Z,13.52
2019-02-26T11:17:53.583Z,13.84
2019-02-26T11:20:59.189Z,14.15
2019-02-26T11:24:03.629Z,14.40
2019-02-26T11:27:06.874Z,14.50
2019-02-26T11:30:13.127Z,14.35
2019-02-26T11:33:16.608Z,14.70
2019-02-26T11:36:19.577Z,14.61
2019-02-26T11:39:22.543Z,15.09
2019-02-26T11:42:26.168Z,14.78
2019-02-26T11:45:32.382Z,14.54
2019-02-26T11:48:35.506Z,15.08
2019-02-26T11:51:41.813Z,15.32
2019-02-26T11:54:44.663Z,15.57
2019-02-26T11:57:49.765Z,15.66
2019-02-26T12:00:57.750Z,15.62
2019-02-26T12:04:04.176Z,15.74
2019-02-26T12:07:07.519Z,16.30
2019-02-26T12:10:14.575Z,16.19
2019-02-26T12:13:19.730Z,15.67
2019-02-26T12:16:23.203Z,15.89
2019-02-26T12:19:28.320Z,15.97
2019-02-26T12:22:31.495Z,16.17
2019-02-26T12:25:35.083Z,16.24
2019-02-26T12:28:40.337Z,16.44
2019-02-26T12:31:43.609Z,16.39
2019-02-26T12:34:48.446Z,16.41
2019-02-26T12:37:53.965Z,16.08
2019-02-26T12:40:58.141Z,16.61
2019-02-26T12:44:03.655Z,16.78
2019-02-26T12:47:05.988Z,17.16
2019-02-26T12:50:11.719Z,16.96
2019-02-26T12:53:17.843Z,17.14
2019-02-26T12:56:20.817Z,16.32
2019-02-26T12:59:25.388Z,16.75
2019-02-26T13:02:28.582Z,17.50
2019-02-26T13:05:31.570Z,17.60
2019-02-26T13:08:36.139Z,17.40
2019-02-26T13:12:00.187Z,17.28
2019-02-26T13:14:47.531Z,17.28
2019-02-26T13:17:54.222Z,16.80
2019-02-26T13:20:59.372Z,17.26
2019-02-26T13:24:11.366Z,17.66
2019-02-26T13:27:05.969Z,17.53
2019-02-26T13:30:12.043Z,17.91
2019-02-26T13:33:17.918Z,17.10
2019-02-26T13:36:20.961Z,17.35
2019-02-26T13:39:29.794Z,17.61
2019-02-26T13:42:29.200Z,17.65
2019-02-26T13:45:32.465Z,17.56
2019-02-26T13:48:35.990Z,17.52
2019-02-26T13:51:39.571Z,17.56
2019-02-26T13:54:42.705Z,17.72
2019-02-26T13:57:46.042Z,17.58
2019-02-26T14:00:49.272Z,17.80
2019-02-26T14:03:52.860Z,18.10
2019-02-26T14:06:56.193Z,18.23
2019-02-26T14:09:59.815Z,18.08
2019-02-26T14:13:04.661Z,18.11
2019-02-26T14:16:07.624Z,18.08
2019-02-26T14:19:10.565Z,17.83
2019-02-26T14:22:14.694Z,17.64
2019-02-26T14:25:17.870Z,17.19
2019-02-26T14:28:20.809Z,16.38
2019-02-26T14:31:24.071Z,17.04
2019-02-26T14:34:27.000Z,17.19
2019-02-26T14:37:30.528Z,17.33
2019-02-26T14:40:33.745Z,17.17
2019-02-26T14:43:37.047Z,17.18
2019-02-26T14:46:40.005Z,17.10
2019-02-26T14:49:42.932Z,17.17
2019-02-26T14:52:46.438Z,17.37
2019-02-26T14:55:50.044Z,17.27
2019-02-26T14:58:55.147Z,16.99
2019-02-26T15:01:58.072Z,16.64
2019-02-26T15:05:01.064Z,16.34
2019-02-26T15:08:04.683Z,15.89
2019-02-26T15:11:07.636Z,15.39
2019-02-26T15:14:10.590Z,15.42
2019-02-26T15:17:13.543Z,15.02
2019-02-26T15:20:16.687Z,14.83
2019-02-26T15:23:20.042Z,14.86
2019-02-26T15:26:24.110Z,14.70
2019-02-26T15:29:28.061Z,14.68
2019-02-26T15:32:31.023Z,14.73
2019-02-26T15:35:34.523Z,14.77
2019-02-26T15:38:37.768Z,14.67
2019-02-26T15:41:41.325Z,14.39
2019-02-26T15:44:45.436Z,14.47
2019-02-26T15:47:48.756Z,14.39
2019-02-26T15:50:51.698Z,14.36
2019-02-26T15:53:55.568Z,14.19
2019-02-26T15:57:00.458Z,14.08
2019-02-26T16:00:06.703Z,14.05
2019-02-26T16:03:10.268Z,14.00
2019-02-26T16:06:14.307Z,13.82
2019-02-26T16:09:17.264Z,13.74
2019-02-26T16:12:20.619Z,13.70
2019-02-26T16:15:24.783Z,13.69
2019-02-26T16:18:29.581Z,13.55
2019-02-26T16:21:33.321Z,13.40
2019-02-26T16:24:36.721Z,13.32
2019-02-26T16:27:40.353Z,13.10
2019-02-26T16:30:43.555Z,12.94
2019-02-26T16:33:47.285Z,12.82
2019-02-26T16:36:50.589Z,12.77
2019-02-26T16:39:55.995Z,12.62
2019-02-26T16:42:58.960Z,12.53
2019-02-26T16:46:01.918Z,12.50
2019-02-26T16:49:05.529Z,12.45
2019-02-26T16:52:08.906Z,12.37
2019-02-26T16:55:13.753Z,12.25
2019-02-26T16:58:17.075Z,12.13
2019-02-26T17:01:21.787Z,12.11
2019-02-26T17:04:26.228Z,12.08
2019-02-26T17:07:29.664Z,11.86
2019-02-26T17:10:33.098Z,11.76
2019-02-26T17:13:36.301Z,11.69
2019-02-26T17:16:40.619Z,11.73
2019-02-26T17:19:48.343Z,11.61
2019-02-26T17:22:49.134Z,11.59
2019-02-26T17:25:52.095Z,11.54
2019-02-26T17:28:55.553Z,11.48
2019-02-26T17:31:58.550Z,11.34
2019-02-26T17:35:01.806Z,11.24
2019-02-26T17:38:05.351Z,11.15
2019-02-26T17:41:09.925Z,11.09
2019-02-26T17:44:13.731Z,11.12
2019-02-26T17:47:16.759Z,11.07
2019-02-26T17:50:29.523Z,10.92
2019-02-26T17:53:32.743Z,10.85
2019-02-26T17:56:36.263Z,10.79
2019-02-26T17:59:39.505Z,10.80
2019-02-26T18:02:42.720Z,10.96
2019-02-26T18:05:51.375Z,10.80
2019-02-26T18:08:50.903Z,10.62
2019-02-26T18:11:53.859Z,10.78
2019-02-26T18:14:56.816Z,10.50
2019-02-26T18:18:00.045Z,10.47
2019-02-26T18:21:05.791Z,10.51
2019-02-26T18:24:07.974Z,10.39
2019-02-26T18:27:10.939Z,10.45
2019-02-26T18:30:19.552Z,10.41
2019-02-26T18:33:22.960Z,10.41
2019-02-26T18:36:26.196Z,10.29
2019-02-26T18:39:29.712Z,10.21
2019-02-26T18:42:32.743Z,10.20
2019-02-26T18:45:35.913Z,10.12
2019-02-26T18:48:39.340Z,10.16
2019-02-26T18:51:42.530Z,10.19
2019-02-26T18:54:45.503Z,10.13
2019-02-26T18:57:48.452Z,10.12
2019-02-26T19:00:52.187Z,10.02
2019-02-26T19:03:55.256Z,10.02
2019-02-26T19:06:59.642Z,10.12
2019-02-26T19:10:06.063Z,9.93
2019-02-26T19:13:09.193Z,10.02
2019-02-26T19:16:12.360Z,9.98
2019-02-26T19:19:16.297Z,9.89
2019-02-26T19:22:19.552Z,9.91
2019-02-26T19:25:22.520Z,9.91
2019-02-26T19:28:26.478Z,9.91
2019-02-26T19:31:29.867Z,9.82
2019-02-26T19:34:32.935Z,9.74
2019-02-26T19:37:36.028Z,9.80
2019-02-26T19:40:40.506Z,9.72
2019-02-26T19:43:44.461Z,9.73
2019-02-26T19:46:49.660Z,9.60
2019-02-26T19:49:52.853Z,9.67
2019-02-26T19:52:57.291Z,9.53
2019-02-26T19:56:00.785Z,9.42
2019-02-26T19:59:03.721Z,9.42
2019-02-26T20:02:06.756Z,9.50
2019-02-26T20:05:12.210Z,9.53
2019-02-26T20:08:15.873Z,9.38
2019-02-26T20:11:22.357Z,9.33
2019-02-26T20:14:24.205Z,9.25
2019-02-26T20:17:27.426Z,9.24
2019-02-26T20:20:40.195Z,9.38
2019-02-26T20:23:36.302Z,9.34
2019-02-26T20:26:39.856Z,9.45
2019-02-26T20:29:43.079Z,9.25
2019-02-26T20:32:46.075Z,9.33
2019-02-26T20:35:49.686Z,9.27
2019-02-26T20:38:53.275Z,9.26
2019-02-26T20:41:56.491Z,9.16
2019-02-26T20:44:59.846Z,9.33
2019-02-26T20:48:04.336Z,9.38
2019-02-26T20:51:07.923Z,9.31
2019-02-26T20:54:11.688Z,9.25
2019-02-26T20:57:15.110Z,9.07
2019-02-26T21:00:18.522Z,8.82
2019-02-26T21:03:21.877Z,8.76
2019-02-26T21:06:25.052Z,9.07
2019-02-26T21:09:28.455Z,8.93
2019-02-26T21:12:31.687Z,8.94
2019-02-26T21:15:34.749Z,8.77
2019-02-26T21:18:39.349Z,8.65
2019-02-26T21:21:42.979Z,8.60
2019-02-26T21:24:47.525Z,8.70
2019-02-26T21:27:50.734Z,8.76
2019-02-26T21:30:54.099Z,8.38
2019-02-26T21:33:57.344Z,8.48
2019-02-26T21:37:00.713Z,8.49
2019-02-26T21:40:04.187Z,8.20
2019-02-26T21:43:08.490Z,8.38
2019-02-26T21:46:11.432Z,7.92
2019-02-26T21:49:14.642Z,7.91
2019-02-26T21:52:17.831Z,8.02
2019-02-26T21:55:21.076Z,8.21
2019-02-26T21:58:26.463Z,8.04
2019-02-26T22:01:29.143Z,8.21
2019-02-26T22:04:32.437Z,8.43
2019-02-26T22:07:35.660Z,8.13
2019-02-26T22:10:40.219Z,7.94
2019-02-26T22:13:43.870Z,8.04
2019-02-26T22:16:48.978Z,8.34
2019-02-26T22:19:52.776Z,8.06
2019-02-26T22:22:57.872Z,8.28
2019-02-26T22:26:01.338Z,8.12
2019-02-26T22:29:04.273Z,7.72
2019-02-26T22:32:07.590Z,7.82
2019-02-26T22:35:11.723Z,7.41
2019-02-26T22:38:15.997Z,7.49
2019-02-26T22:41:19.298Z,8.13
2019-02-26T22:44:22.531Z,7.28
2019-02-26T22:47:25.745Z,7.13
2019-02-26T22:50:28.950Z,7.03
2019-02-26T22:53:31.893Z,7.23
2019-02-26T22:56:34.815Z,8.03
2019-02-26T22:59:38.575Z,8.13
2019-02-26T23:02:43.456Z,7.40
2019-02-26T23:05:46.839Z,7.00
2019-02-26T23:08:50.754Z,7.06
2019-02-26T23:11:54.103Z,7.07
2019-02-26T23:14:57.759Z,7.49
2019-02-26T23:18:01.004Z,7.80
2019-02-26T23:21:04.750Z,8.06
2019-02-26T23:24:08.095Z,8.10
2019-02-26T23:27:14.897Z,8.05
2019-02-26T23:30:16.734Z,7.75
2019-02-26T23:33:20.120Z,7.80
2019-02-26T23:36:23.067Z,7.34
2019-02-26T23:39:26.374Z,7.07
2019-02-26T23:42:31.379Z,7.36
2019-02-26T23:45:34.803Z,7.35
2019-02-26T23:48:40.572Z,7.40
2019-02-26T23:51:42.858Z,7.17
2019-02-26T23:54:45.823Z,7.58
2019-02-26T23:57:49.312Z,7.26
